sensor_id;sensor_type;location;lat;lon;timestamp;P1;durP1;ratioP1;P2;durP2;ratioP2
2289;SDS011;1153;47.986;7.898;2023-04-05T00:02:06;3.80;;;3.53;;
2289;SDS011;1153;47.986;7.898;2023-04-05T00:04:34;3.30;;;3.10;;
2289;SDS011;1153;47.986;7.898;2023-04-05T00:07:00;4.73;;;3.37;;
2289;SDS011;1153;47.986;7.898;2023-04-05T00:09:26;3.10;;;2.80;;
2289;SDS011;1153;47.986;7.898;2023-04-05T00:11:53;3.00;;;2.70;;
2289;SDS011;1153;47.986;7.898;2023-04-05T00:14:18;5.10;;;3.03;;
2289;SDS011;1153;47.986;7.898;2023-04-05T00:16:43;5.30;;;3.00;;
2289;SDS011;1153;47.986;7.898;2023-04-05T00:19:09;3.37;;;3.03;;
2289;SDS011;1153;47.986;7.898;2023-04-05T00:21:36;6.27;;;3.10;;
2289;SDS011;1153;47.986;7.898;2023-04-05T00:24:03;4.03;;;3.73;;
2289;SDS011;1153;47.986;7.898;2023-04-05T00:26:29;3.00;;;2.83;;
2289;SDS011;1153;47.986;7.898;2023-04-05T00:28:54;3.77;;;3.40;;
2289;SDS011;1153;47.986;7.898;2023-04-05T00:31:19;3.93;;;3.63;;
2289;SDS011;1153;47.986;7.898;2023-04-05T00:33:45;3.03;;;2.90;;
2289;SDS011;1153;47.986;7.898;2023-04-05T00:38:35;3.10;;;2.27;;
2289;SDS011;1153;47.986;7.898;2023-04-05T00:41:00;4.47;;;4.07;;
2289;SDS011;1153;47.986;7.898;2023-04-05T00:43:26;3.27;;;2.97;;
2289;SDS011;1153;47.986;7.898;2023-04-05T00:45:51;4.10;;;3.80;;
2289;SDS011;1153;47.986;7.898;2023-04-05T00:48:17;3.23;;;3.03;;
2289;SDS011;1153;47.986;7.898;2023-04-05T00:50:42;3.50;;;3.30;;
2289;SDS011;1153;47.986;7.898;2023-04-05T00:53:07;4.93;;;3.07;;
2289;SDS011;1153;47.986;7.898;2023-04-05T00:55:33;3.17;;;2.97;;
2289;SDS011;1153;47.986;7.898;2023-04-05T00:57:58;4.93;;;2.77;;
2289;SDS011;1153;47.986;7.898;2023-04-05T01:00:23;3.17;;;2.97;;
2289;SDS011;1153;47.986;7.898;2023-04-05T01:02:57;3.57;;;3.27;;
2289;SDS011;1153;47.986;7.898;2023-04-05T01:05:39;3.13;;;2.90;;
2289;SDS011;1153;47.986;7.898;2023-04-05T01:10:40;2.60;;;2.50;;
2289;SDS011;1153;47.986;7.898;2023-04-05T01:13:07;4.73;;;2.70;;
2289;SDS011;1153;47.986;7.898;2023-04-05T01:15:32;3.03;;;2.83;;
2289;SDS011;1153;47.986;7.898;2023-04-05T01:17:58;6.53;;;3.30;;
2289;SDS011;1153;47.986;7.898;2023-04-05T01:20:25;4.50;;;3.73;;
2289;SDS011;1153;47.986;7.898;2023-04-05T01:30:34;3.87;;;3.43;;
2289;SDS011;1153;47.986;7.898;2023-04-05T01:38:13;4.80;;;2.80;;
2289;SDS011;1153;47.986;7.898;2023-04-05T01:40:41;6.40;;;3.73;;
2289;SDS011;1153;47.986;7.898;2023-04-05T01:43:13;3.27;;;2.50;;
2289;SDS011;1153;47.986;7.898;2023-04-05T01:45:39;4.70;;;2.53;;
2289;SDS011;1153;47.986;7.898;2023-04-05T01:48:05;2.77;;;2.57;;
2289;SDS011;1153;47.986;7.898;2023-04-05T01:50:30;2.70;;;2.50;;
2289;SDS011;1153;47.986;7.898;2023-04-05T01:52:55;3.60;;;3.40;;
2289;SDS011;1153;47.986;7.898;2023-04-05T01:55:20;6.23;;;3.10;;
2289;SDS011;1153;47.986;7.898;2023-04-05T01:57:45;3.00;;;2.80;;
2289;SDS011;1153;47.986;7.898;2023-04-05T02:00:11;4.60;;;3.37;;
2289;SDS011;1153;47.986;7.898;2023-04-05T02:02:37;4.23;;;3.93;;
2289;SDS011;1153;47.986;7.898;2023-04-05T02:05:02;3.77;;;2.97;;
2289;SDS011;1153;47.986;7.898;2023-04-05T02:07:27;4.17;;;3.97;;
2289;SDS011;1153;47.986;7.898;2023-04-05T02:09:52;7.50;;;3.47;;
2289;SDS011;1153;47.986;7.898;2023-04-05T02:12:18;8.23;;;3.00;;
2289;SDS011;1153;47.986;7.898;2023-04-05T02:14:43;4.50;;;3.27;;
2289;SDS011;1153;47.986;7.898;2023-04-05T02:17:08;3.80;;;3.50;;
2289;SDS011;1153;47.986;7.898;2023-04-05T02:19:33;3.83;;;3.37;;
2289;SDS011;1153;47.986;7.898;2023-04-05T02:22:05;4.57;;;4.10;;
2289;SDS011;1153;47.986;7.898;2023-04-05T02:24:30;3.23;;;2.33;;
2289;SDS011;1153;47.986;7.898;2023-04-05T02:26:55;2.63;;;2.43;;
2289;SDS011;1153;47.986;7.898;2023-04-05T02:29:20;4.23;;;3.80;;
2289;SDS011;1153;47.986;7.898;2023-04-05T02:31:45;3.20;;;2.97;;
2289;SDS011;1153;47.986;7.898;2023-04-05T02:34:11;3.70;;;3.40;;
2289;SDS011;1153;47.986;7.898;2023-04-05T02:36:36;4.17;;;3.67;;
2289;SDS011;1153;47.986;7.898;2023-04-05T02:39:01;3.10;;;2.90;;
2289;SDS011;1153;47.986;7.898;2023-04-05T02:41:26;4.73;;;3.40;;
2289;SDS011;1153;47.986;7.898;2023-04-05T02:43:51;6.20;;;3.20;;
2289;SDS011;1153;47.986;7.898;2023-04-05T02:46:17;2.70;;;2.50;;
2289;SDS011;1153;47.986;7.898;2023-04-05T02:48:43;5.23;;;4.23;;
2289;SDS011;1153;47.986;7.898;2023-04-05T02:51:08;3.27;;;2.97;;
2289;SDS011;1153;47.986;7.898;2023-04-05T02:53:33;4.00;;;3.80;;
2289;SDS011;1153;47.986;7.898;2023-04-05T02:55:59;5.20;;;3.50;;
2289;SDS011;1153;47.986;7.898;2023-04-05T02:58:24;6.90;;;3.70;;
2289;SDS011;1153;47.986;7.898;2023-04-05T03:00:50;3.67;;;3.40;;
2289;SDS011;1153;47.986;7.898;2023-04-05T03:03:17;3.13;;;2.93;;
2289;SDS011;1153;47.986;7.898;2023-04-05T03:05:42;4.43;;;4.13;;
2289;SDS011;1153;47.986;7.898;2023-04-05T03:08:08;4.57;;;3.40;;
2289;SDS011;1153;47.986;7.898;2023-04-05T03:10:34;6.33;;;3.30;;
2289;SDS011;1153;47.986;7.898;2023-04-05T03:13:00;4.40;;;3.10;;
2289;SDS011;1153;47.986;7.898;2023-04-05T03:15:26;3.70;;;3.40;;
2289;SDS011;1153;47.986;7.898;2023-04-05T03:17:52;3.27;;;3.07;;
2289;SDS011;1153;47.986;7.898;2023-04-05T03:20:17;3.00;;;2.80;;
2289;SDS011;1153;47.986;7.898;2023-04-05T03:22:42;2.80;;;2.50;;
2289;SDS011;1153;47.986;7.898;2023-04-05T03:25:07;3.33;;;3.13;;
2289;SDS011;1153;47.986;7.898;2023-04-05T03:27:32;4.83;;;3.50;;
2289;SDS011;1153;47.986;7.898;2023-04-05T03:29:58;2.40;;;2.20;;
2289;SDS011;1153;47.986;7.898;2023-04-05T03:32:23;3.30;;;3.10;;
2289;SDS011;1153;47.986;7.898;2023-04-05T03:34:48;5.00;;;4.00;;
2289;SDS011;1153;47.986;7.898;2023-04-05T03:37:13;3.00;;;2.80;;
2289;SDS011;1153;47.986;7.898;2023-04-05T03:39:38;4.07;;;3.77;;
2289;SDS011;1153;47.986;7.898;2023-04-05T03:42:04;6.03;;;4.00;;
2289;SDS011;1153;47.986;7.898;2023-04-05T03:44:29;3.50;;;3.30;;
2289;SDS011;1153;47.986;7.898;2023-04-05T03:46:54;4.50;;;3.27;;
2289;SDS011;1153;47.986;7.898;2023-04-05T03:49:20;3.60;;;3.30;;
2289;SDS011;1153;47.986;7.898;2023-04-05T03:51:45;4.17;;;3.97;;
2289;SDS011;1153;47.986;7.898;2023-04-05T03:54:11;3.37;;;3.07;;
2289;SDS011;1153;47.986;7.898;2023-04-05T03:56:36;2.83;;;2.70;;
2289;SDS011;1153;47.986;7.898;2023-04-05T03:59:01;4.10;;;3.20;;
2289;SDS011;1153;47.986;7.898;2023-04-05T04:01:27;3.70;;;3.40;;
2289;SDS011;1153;47.986;7.898;2023-04-05T04:03:52;3.30;;;3.10;;
2289;SDS011;1153;47.986;7.898;2023-04-05T04:06:17;5.70;;;3.20;;
2289;SDS011;1153;47.986;7.898;2023-04-05T04:08:43;5.60;;;3.80;;
2289;SDS011;1153;47.986;7.898;2023-04-05T04:11:08;4.57;;;3.40;;
2289;SDS011;1153;47.986;7.898;2023-04-05T04:13:33;10.43;;;3.63;;
2289;SDS011;1153;47.986;7.898;2023-04-05T04:18:33;3.30;;;3.00;;
2289;SDS011;1153;47.986;7.898;2023-04-05T04:21:00;5.70;;;2.70;;
2289;SDS011;1153;47.986;7.898;2023-04-05T04:23:30;3.97;;;3.70;;
2289;SDS011;1153;47.986;7.898;2023-04-05T04:25:55;3.63;;;3.33;;
2289;SDS011;1153;47.986;7.898;2023-04-05T04:28:20;3.73;;;3.33;;
2289;SDS011;1153;47.986;7.898;2023-04-05T04:30:48;5.27;;;3.77;;
2289;SDS011;1153;47.986;7.898;2023-04-05T04:33:14;2.97;;;2.77;;
2289;SDS011;1153;47.986;7.898;2023-04-05T04:35:41;10.03;;;3.33;;
2289;SDS011;1153;47.986;7.898;2023-04-05T04:38:10;10.63;;;3.87;;
2289;SDS011;1153;47.986;7.898;2023-04-05T04:40:42;5.07;;;4.57;;
2289;SDS011;1153;47.986;7.898;2023-04-05T04:43:11;3.93;;;3.23;;
2289;SDS011;1153;47.986;7.898;2023-04-05T04:45:43;3.23;;;2.97;;
2289;SDS011;1153;47.986;7.898;2023-04-05T04:48:11;3.10;;;2.83;;
2289;SDS011;1153;47.986;7.898;2023-04-05T04:50:38;2.60;;;2.40;;
2289;SDS011;1153;47.986;7.898;2023-04-05T04:53:03;4.17;;;3.77;;
2289;SDS011;1153;47.986;7.898;2023-04-05T04:55:28;4.30;;;4.03;;
2289;SDS011;1153;47.986;7.898;2023-04-05T04:57:53;2.83;;;2.63;;
2289;SDS011;1153;47.986;7.898;2023-04-05T05:00:19;3.03;;;2.83;;
2289;SDS011;1153;47.986;7.898;2023-04-05T05:02:46;4.60;;;4.30;;
2289;SDS011;1153;47.986;7.898;2023-04-05T05:05:11;4.17;;;3.90;;
2289;SDS011;1153;47.986;7.898;2023-04-05T05:07:38;3.87;;;3.67;;
2289;SDS011;1153;47.986;7.898;2023-04-05T05:10:04;3.43;;;3.23;;
2289;SDS011;1153;47.986;7.898;2023-04-05T05:12:30;4.30;;;3.90;;
2289;SDS011;1153;47.986;7.898;2023-04-05T05:14:55;3.63;;;3.43;;
2289;SDS011;1153;47.986;7.898;2023-04-05T05:17:21;4.20;;;3.60;;
2289;SDS011;1153;47.986;7.898;2023-04-05T05:19:47;4.70;;;4.20;;
2289;SDS011;1153;47.986;7.898;2023-04-05T05:22:12;4.77;;;3.90;;
2289;SDS011;1153;47.986;7.898;2023-04-05T05:24:37;4.73;;;3.80;;
2289;SDS011;1153;47.986;7.898;2023-04-05T05:27:03;5.37;;;4.30;;
2289;SDS011;1153;47.986;7.898;2023-04-05T05:29:28;3.60;;;3.40;;
2289;SDS011;1153;47.986;7.898;2023-04-05T05:31:53;5.13;;;4.83;;
2289;SDS011;1153;47.986;7.898;2023-04-05T05:34:19;4.50;;;4.13;;
2289;SDS011;1153;47.986;7.898;2023-04-05T05:36:44;7.30;;;4.27;;
2289;SDS011;1153;47.986;7.898;2023-04-05T05:39:10;3.90;;;3.70;;
2289;SDS011;1153;47.986;7.898;2023-04-05T05:41:35;3.97;;;3.53;;
2289;SDS011;1153;47.986;7.898;2023-04-05T05:44:00;4.17;;;3.67;;
2289;SDS011;1153;47.986;7.898;2023-04-05T05:46:25;3.27;;;2.90;;
2289;SDS011;1153;47.986;7.898;2023-04-05T05:48:51;4.30;;;3.53;;
2289;SDS011;1153;47.986;7.898;2023-04-05T05:51:16;12.73;;;5.20;;
2289;SDS011;1153;47.986;7.898;2023-04-05T05:53:42;4.33;;;4.13;;
2289;SDS011;1153;47.986;7.898;2023-04-05T05:56:07;6.70;;;5.37;;
2289;SDS011;1153;47.986;7.898;2023-04-05T05:58:32;4.20;;;4.00;;
2289;SDS011;1153;47.986;7.898;2023-04-05T06:00:57;4.67;;;4.27;;
2289;SDS011;1153;47.986;7.898;2023-04-05T06:03:23;4.53;;;4.33;;
2289;SDS011;1153;47.986;7.898;2023-04-05T06:05:50;5.90;;;4.10;;
2289;SDS011;1153;47.986;7.898;2023-04-05T06:08:16;6.43;;;4.07;;
2289;SDS011;1153;47.986;7.898;2023-04-05T06:10:42;4.27;;;4.03;;
2289;SDS011;1153;47.986;7.898;2023-04-05T06:13:07;5.23;;;4.73;;
2289;SDS011;1153;47.986;7.898;2023-04-05T06:15:32;9.70;;;4.87;;
2289;SDS011;1153;47.986;7.898;2023-04-05T06:17:57;5.07;;;4.53;;
2289;SDS011;1153;47.986;7.898;2023-04-05T06:20:23;7.60;;;4.93;;
2289;SDS011;1153;47.986;7.898;2023-04-05T06:22:48;8.07;;;4.57;;
2289;SDS011;1153;47.986;7.898;2023-04-05T06:25:13;4.20;;;3.53;;
2289;SDS011;1153;47.986;7.898;2023-04-05T06:27:38;5.33;;;4.70;;
2289;SDS011;1153;47.986;7.898;2023-04-05T06:30:04;5.47;;;4.97;;
2289;SDS011;1153;47.986;7.898;2023-04-05T06:32:29;5.13;;;4.67;;
2289;SDS011;1153;47.986;7.898;2023-04-05T06:34:54;6.53;;;5.93;;
2289;SDS011;1153;47.986;7.898;2023-04-05T06:37:19;9.00;;;4.70;;
2289;SDS011;1153;47.986;7.898;2023-04-05T06:39:45;5.10;;;4.50;;
2289;SDS011;1153;47.986;7.898;2023-04-05T06:42:10;4.93;;;4.53;;
2289;SDS011;1153;47.986;7.898;2023-04-05T06:44:35;5.37;;;5.07;;
2289;SDS011;1153;47.986;7.898;2023-04-05T06:47:00;5.50;;;5.13;;
2289;SDS011;1153;47.986;7.898;2023-04-05T06:49:26;5.23;;;4.73;;
2289;SDS011;1153;47.986;7.898;2023-04-05T06:51:51;5.77;;;5.20;;
2289;SDS011;1153;47.986;7.898;2023-04-05T06:54:16;4.63;;;4.43;;
2289;SDS011;1153;47.986;7.898;2023-04-05T06:56:42;4.73;;;4.43;;
2289;SDS011;1153;47.986;7.898;2023-04-05T06:59:07;8.20;;;5.60;;
2289;SDS011;1153;47.986;7.898;2023-04-05T07:01:32;5.03;;;4.70;;
2289;SDS011;1153;47.986;7.898;2023-04-05T07:03:57;5.60;;;5.30;;
2289;SDS011;1153;47.986;7.898;2023-04-05T07:06:22;6.90;;;4.67;;
2289;SDS011;1153;47.986;7.898;2023-04-05T07:08:48;7.30;;;5.10;;
2289;SDS011;1153;47.986;7.898;2023-04-05T07:11:13;8.43;;;5.70;;
2289;SDS011;1153;47.986;7.898;2023-04-05T07:13:39;4.67;;;4.37;;
2289;SDS011;1153;47.986;7.898;2023-04-05T07:16:05;9.60;;;5.10;;
2289;SDS011;1153;47.986;7.898;2023-04-05T07:18:30;5.37;;;5.00;;
2289;SDS011;1153;47.986;7.898;2023-04-05T07:20:56;6.60;;;5.97;;
2289;SDS011;1153;47.986;7.898;2023-04-05T07:23:24;8.97;;;6.70;;
2289;SDS011;1153;47.986;7.898;2023-04-05T07:25:50;8.57;;;6.00;;
2289;SDS011;1153;47.986;7.898;2023-04-05T07:28:15;6.20;;;5.80;;
2289;SDS011;1153;47.986;7.898;2023-04-05T07:30:40;8.47;;;5.93;;
2289;SDS011;1153;47.986;7.898;2023-04-05T07:33:05;5.60;;;5.20;;
2289;SDS011;1153;47.986;7.898;2023-04-05T07:35:31;9.50;;;5.40;;
2289;SDS011;1153;47.986;7.898;2023-04-05T07:37:56;2.77;;;2.67;;
2289;SDS011;1153;47.986;7.898;2023-04-05T07:40:21;4.13;;;3.83;;
2289;SDS011;1153;47.986;7.898;2023-04-05T07:42:46;3.77;;;3.47;;
2289;SDS011;1153;47.986;7.898;2023-04-05T07:45:12;3.33;;;3.13;;
2289;SDS011;1153;47.986;7.898;2023-04-05T07:47:37;2.90;;;2.70;;
2289;SDS011;1153;47.986;7.898;2023-04-05T07:50:02;3.57;;;3.37;;
2289;SDS011;1153;47.986;7.898;2023-04-05T07:52:27;4.50;;;4.10;;
2289;SDS011;1153;47.986;7.898;2023-04-05T07:54:53;3.40;;;3.17;;
2289;SDS011;1153;47.986;7.898;2023-04-05T07:57:19;3.60;;;3.23;;
2289;SDS011;1153;47.986;7.898;2023-04-05T07:59:44;3.43;;;3.23;;
2289;SDS011;1153;47.986;7.898;2023-04-05T08:02:10;3.33;;;3.13;;
2289;SDS011;1153;47.986;7.898;2023-04-05T08:04:35;3.53;;;2.97;;
2289;SDS011;1153;47.986;7.898;2023-04-05T08:07:00;2.80;;;2.60;;
2289;SDS011;1153;47.986;7.898;2023-04-05T08:09:25;3.33;;;3.03;;
2289;SDS011;1153;47.986;7.898;2023-04-05T08:11:51;3.00;;;2.80;;
2289;SDS011;1153;47.986;7.898;2023-04-05T08:14:16;3.10;;;2.93;;
2289;SDS011;1153;47.986;7.898;2023-04-05T08:16:42;3.27;;;3.00;;
2289;SDS011;1153;47.986;7.898;2023-04-05T08:19:07;2.83;;;2.63;;
2289;SDS011;1153;47.986;7.898;2023-04-05T08:21:32;2.23;;;2.00;;
2289;SDS011;1153;47.986;7.898;2023-04-05T08:23:57;10.23;;;2.50;;
2289;SDS011;1153;47.986;7.898;2023-04-05T08:26:24;2.93;;;2.73;;
2289;SDS011;1153;47.986;7.898;2023-04-05T08:28:49;3.00;;;2.70;;
2289;SDS011;1153;47.986;7.898;2023-04-05T08:31:15;3.20;;;3.10;;
2289;SDS011;1153;47.986;7.898;2023-04-05T08:33:41;3.03;;;2.83;;
2289;SDS011;1153;47.986;7.898;2023-04-05T08:36:06;2.73;;;2.53;;
2289;SDS011;1153;47.986;7.898;2023-04-05T08:38:32;2.77;;;2.60;;
2289;SDS011;1153;47.986;7.898;2023-04-05T08:40:57;3.77;;;3.47;;
2289;SDS011;1153;47.986;7.898;2023-04-05T08:43:43;3.27;;;3.17;;
2289;SDS011;1153;47.986;7.898;2023-04-05T08:46:13;4.67;;;4.37;;
2289;SDS011;1153;47.986;7.898;2023-04-05T08:48:38;6.23;;;3.20;;
2289;SDS011;1153;47.986;7.898;2023-04-05T08:51:05;5.40;;;3.10;;
2289;SDS011;1153;47.986;7.898;2023-04-05T08:53:30;3.63;;;3.33;;
2289;SDS011;1153;47.986;7.898;2023-04-05T08:55:57;4.77;;;3.97;;
2289;SDS011;1153;47.986;7.898;2023-04-05T08:58:24;3.23;;;3.03;;
2289;SDS011;1153;47.986;7.898;2023-04-05T09:00:49;4.33;;;4.00;;
2289;SDS011;1153;47.986;7.898;2023-04-05T09:03:22;4.13;;;3.80;;
2289;SDS011;1153;47.986;7.898;2023-04-05T09:05:49;2.50;;;2.40;;
2289;SDS011;1153;47.986;7.898;2023-04-05T09:08:15;8.93;;;4.00;;
2289;SDS011;1153;47.986;7.898;2023-04-05T09:10:40;3.83;;;3.63;;
2289;SDS011;1153;47.986;7.898;2023-04-05T09:13:05;4.13;;;3.73;;
2289;SDS011;1153;47.986;7.898;2023-04-05T09:15:32;4.10;;;3.40;;
2289;SDS011;1153;47.986;7.898;2023-04-05T09:17:58;4.00;;;3.70;;
2289;SDS011;1153;47.986;7.898;2023-04-05T09:20:23;5.33;;;2.87;;
2289;SDS011;1153;47.986;7.898;2023-04-05T09:22:48;3.30;;;3.10;;
2289;SDS011;1153;47.986;7.898;2023-04-05T09:27:57;4.00;;;3.60;;
2289;SDS011;1153;47.986;7.898;2023-04-05T09:30:23;4.33;;;3.23;;
2289;SDS011;1153;47.986;7.898;2023-04-05T09:32:52;6.00;;;3.50;;
2289;SDS011;1153;47.986;7.898;2023-04-05T09:35:19;3.17;;;2.97;;
2289;SDS011;1153;47.986;7.898;2023-04-05T09:37:52;3.47;;;3.27;;
2289;SDS011;1153;47.986;7.898;2023-04-05T09:40:17;4.37;;;3.97;;
2289;SDS011;1153;47.986;7.898;2023-04-05T09:42:43;3.40;;;3.20;;
2289;SDS011;1153;47.986;7.898;2023-04-05T09:45:09;4.83;;;3.40;;
2289;SDS011;1153;47.986;7.898;2023-04-05T09:47:35;6.07;;;3.43;;
2289;SDS011;1153;47.986;7.898;2023-04-05T09:50:00;4.33;;;3.53;;
2289;SDS011;1153;47.986;7.898;2023-04-05T09:52:27;3.33;;;3.13;;
2289;SDS011;1153;47.986;7.898;2023-04-05T09:54:53;3.73;;;3.13;;
2289;SDS011;1153;47.986;7.898;2023-04-05T09:57:22;3.70;;;3.07;;
2289;SDS011;1153;47.986;7.898;2023-04-05T09:59:47;4.23;;;4.00;;
2289;SDS011;1153;47.986;7.898;2023-04-05T10:02:13;3.97;;;3.00;;
2289;SDS011;1153;47.986;7.898;2023-04-05T10:04:40;3.37;;;3.17;;
2289;SDS011;1153;47.986;7.898;2023-04-05T10:07:06;10.50;;;3.70;;
2289;SDS011;1153;47.986;7.898;2023-04-05T10:09:31;4.70;;;3.70;;
2289;SDS011;1153;47.986;7.898;2023-04-05T10:11:56;4.30;;;3.53;;
2289;SDS011;1153;47.986;7.898;2023-04-05T10:14:22;3.87;;;3.60;;
2289;SDS011;1153;47.986;7.898;2023-04-05T10:21:40;3.77;;;3.47;;
2289;SDS011;1153;47.986;7.898;2023-04-05T10:27:20;5.53;;;3.40;;
2289;SDS011;1153;47.986;7.898;2023-04-05T10:29:18;3.93;;;3.73;;
2289;SDS011;1153;47.986;7.898;2023-04-05T10:31:49;7.00;;;4.40;;
2289;SDS011;1153;47.986;7.898;2023-04-05T10:41:53;3.87;;;3.67;;
2289;SDS011;1153;47.986;7.898;2023-04-05T10:44:21;3.80;;;3.60;;
2289;SDS011;1153;47.986;7.898;2023-04-05T10:46:47;5.23;;;3.67;;
2289;SDS011;1153;47.986;7.898;2023-04-05T10:49:32;2.90;;;2.80;;
2289;SDS011;1153;47.986;7.898;2023-04-05T10:51:58;5.03;;;4.37;;
2289;SDS011;1153;47.986;7.898;2023-04-05T10:54:24;3.60;;;3.40;;
2289;SDS011;1153;47.986;7.898;2023-04-05T10:56:50;2.77;;;2.67;;
2289;SDS011;1153;47.986;7.898;2023-04-05T10:59:15;3.73;;;3.43;;
2289;SDS011;1153;47.986;7.898;2023-04-05T11:01:41;3.23;;;2.47;;
2289;SDS011;1153;47.986;7.898;2023-04-05T11:06:35;3.30;;;3.20;;
2289;SDS011;1153;47.986;7.898;2023-04-05T11:09:10;3.77;;;3.57;;
2289;SDS011;1153;47.986;7.898;2023-04-05T11:11:39;4.30;;;4.10;;
2289;SDS011;1153;47.986;7.898;2023-04-05T11:14:23;3.50;;;3.30;;
2289;SDS011;1153;47.986;7.898;2023-04-05T11:16:50;4.80;;;4.47;;
2289;SDS011;1153;47.986;7.898;2023-04-05T11:19:18;5.00;;;4.70;;
2289;SDS011;1153;47.986;7.898;2023-04-05T11:21:43;4.77;;;4.37;;
2289;SDS011;1153;47.986;7.898;2023-04-05T11:24:12;3.87;;;3.57;;
2289;SDS011;1153;47.986;7.898;2023-04-05T11:29:08;4.30;;;4.00;;
2289;SDS011;1153;47.986;7.898;2023-04-05T11:31:33;4.40;;;4.10;;
2289;SDS011;1153;47.986;7.898;2023-04-05T11:33:59;3.90;;;3.70;;
2289;SDS011;1153;47.986;7.898;2023-04-05T11:36:49;5.97;;;4.70;;
2289;SDS011;1153;47.986;7.898;2023-04-05T11:41:42;4.33;;;4.03;;
2289;SDS011;1153;47.986;7.898;2023-04-05T11:44:09;4.70;;;4.47;;
2289;SDS011;1153;47.986;7.898;2023-04-05T11:46:37;4.40;;;4.10;;
2289;SDS011;1153;47.986;7.898;2023-04-05T11:49:03;4.77;;;4.47;;
2289;SDS011;1153;47.986;7.898;2023-04-05T11:51:28;4.90;;;4.60;;
2289;SDS011;1153;47.986;7.898;2023-04-05T11:53:53;4.77;;;4.57;;
2289;SDS011;1153;47.986;7.898;2023-04-05T11:56:18;5.03;;;4.67;;
2289;SDS011;1153;47.986;7.898;2023-04-05T11:58:45;4.77;;;4.47;;
2289;SDS011;1153;47.986;7.898;2023-04-05T12:01:10;4.67;;;4.47;;
2289;SDS011;1153;47.986;7.898;2023-04-05T12:03:35;4.50;;;4.30;;
2289;SDS011;1153;47.986;7.898;2023-04-05T12:06:01;4.07;;;3.87;;
2289;SDS011;1153;47.986;7.898;2023-04-05T12:08:39;4.50;;;4.27;;
2289;SDS011;1153;47.986;7.898;2023-04-05T12:11:06;4.67;;;4.37;;
2289;SDS011;1153;47.986;7.898;2023-04-05T12:13:32;5.60;;;5.13;;
2289;SDS011;1153;47.986;7.898;2023-04-05T12:15:59;3.90;;;3.70;;
2289;SDS011;1153;47.986;7.898;2023-04-05T12:18:25;6.43;;;4.43;;
2289;SDS011;1153;47.986;7.898;2023-04-05T12:20:51;6.80;;;6.20;;
2289;SDS011;1153;47.986;7.898;2023-04-05T12:23:17;5.07;;;4.03;;
2289;SDS011;1153;47.986;7.898;2023-04-05T12:25:49;5.10;;;4.80;;
2289;SDS011;1153;47.986;7.898;2023-04-05T12:28:14;6.90;;;5.30;;
2289;SDS011;1153;47.986;7.898;2023-04-05T12:30:49;4.80;;;4.50;;
2289;SDS011;1153;47.986;7.898;2023-04-05T12:33:15;3.80;;;3.60;;
2289;SDS011;1153;47.986;7.898;2023-04-05T12:35:50;4.83;;;4.43;;
2289;SDS011;1153;47.986;7.898;2023-04-05T12:38:15;4.67;;;4.07;;
2289;SDS011;1153;47.986;7.898;2023-04-05T12:40:41;4.23;;;4.03;;
2289;SDS011;1153;47.986;7.898;2023-04-05T12:43:07;4.33;;;4.03;;
2289;SDS011;1153;47.986;7.898;2023-04-05T12:45:33;4.73;;;4.53;;
2289;SDS011;1153;47.986;7.898;2023-04-05T12:48:08;4.60;;;4.40;;
2289;SDS011;1153;47.986;7.898;2023-04-05T12:50:35;4.67;;;4.47;;
2289;SDS011;1153;47.986;7.898;2023-04-05T12:53:03;5.57;;;5.20;;
2289;SDS011;1153;47.986;7.898;2023-04-05T12:55:29;4.13;;;3.93;;
2289;SDS011;1153;47.986;7.898;2023-04-05T12:57:58;4.93;;;4.63;;
2289;SDS011;1153;47.986;7.898;2023-04-05T13:00:24;4.40;;;4.20;;
2289;SDS011;1153;47.986;7.898;2023-04-05T13:02:50;5.20;;;4.57;;
2289;SDS011;1153;47.986;7.898;2023-04-05T13:05:18;5.00;;;4.60;;
2289;SDS011;1153;47.986;7.898;2023-04-05T13:07:43;4.20;;;4.00;;
2289;SDS011;1153;47.986;7.898;2023-04-05T13:10:08;4.50;;;4.23;;
2289;SDS011;1153;47.986;7.898;2023-04-05T13:12:34;5.03;;;4.40;;
2289;SDS011;1153;47.986;7.898;2023-04-05T13:14:59;5.20;;;4.90;;
2289;SDS011;1153;47.986;7.898;2023-04-05T13:17:24;5.50;;;5.10;;
2289;SDS011;1153;47.986;7.898;2023-04-05T13:19:49;3.80;;;3.47;;
2289;SDS011;1153;47.986;7.898;2023-04-05T13:22:15;4.50;;;4.30;;
2289;SDS011;1153;47.986;7.898;2023-04-05T13:24:40;4.73;;;4.40;;
2289;SDS011;1153;47.986;7.898;2023-04-05T13:27:05;4.30;;;4.00;;
2289;SDS011;1153;47.986;7.898;2023-04-05T13:29:30;4.23;;;4.03;;
2289;SDS011;1153;47.986;7.898;2023-04-05T13:31:55;5.33;;;4.30;;
2289;SDS011;1153;47.986;7.898;2023-04-05T13:34:20;5.07;;;4.70;;
2289;SDS011;1153;47.986;7.898;2023-04-05T13:36:46;4.83;;;4.40;;
2289;SDS011;1153;47.986;7.898;2023-04-05T13:39:13;3.93;;;3.73;;
2289;SDS011;1153;47.986;7.898;2023-04-05T13:41:38;3.87;;;3.53;;
2289;SDS011;1153;47.986;7.898;2023-04-05T13:44:03;4.87;;;4.57;;
2289;SDS011;1153;47.986;7.898;2023-04-05T13:46:28;4.63;;;4.43;;
2289;SDS011;1153;47.986;7.898;2023-04-05T13:48:53;4.53;;;4.13;;
2289;SDS011;1153;47.986;7.898;2023-04-05T13:51:18;4.50;;;4.07;;
2289;SDS011;1153;47.986;7.898;2023-04-05T13:53:44;4.93;;;4.63;;
2289;SDS011;1153;47.986;7.898;2023-04-05T13:56:09;7.80;;;4.50;;
2289;SDS011;1153;47.986;7.898;2023-04-05T13:58:34;3.83;;;3.60;;
2289;SDS011;1153;47.986;7.898;2023-04-05T14:01:00;4.03;;;3.83;;
2289;SDS011;1153;47.986;7.898;2023-04-05T14:03:25;4.43;;;4.00;;
2289;SDS011;1153;47.986;7.898;2023-04-05T14:05:50;5.53;;;5.10;;
2289;SDS011;1153;47.986;7.898;2023-04-05T14:08:15;4.37;;;4.07;;
2289;SDS011;1153;47.986;7.898;2023-04-05T14:10:41;4.53;;;4.23;;
2289;SDS011;1153;47.986;7.898;2023-04-05T14:13:06;5.00;;;4.60;;
2289;SDS011;1153;47.986;7.898;2023-04-05T14:15:32;4.47;;;4.13;;
2289;SDS011;1153;47.986;7.898;2023-04-05T14:17:58;4.00;;;3.80;;
2289;SDS011;1153;47.986;7.898;2023-04-05T14:20:23;3.33;;;3.13;;
2289;SDS011;1153;47.986;7.898;2023-04-05T14:22:49;5.37;;;4.97;;
2289;SDS011;1153;47.986;7.898;2023-04-05T14:25:14;4.50;;;4.10;;
2289;SDS011;1153;47.986;7.898;2023-04-05T14:27:41;4.03;;;3.83;;
2289;SDS011;1153;47.986;7.898;2023-04-05T14:30:06;4.13;;;3.90;;
2289;SDS011;1153;47.986;7.898;2023-04-05T14:32:32;4.93;;;4.57;;
2289;SDS011;1153;47.986;7.898;2023-04-05T14:34:57;4.40;;;4.23;;
2289;SDS011;1153;47.986;7.898;2023-04-05T14:37:22;4.67;;;3.87;;
2289;SDS011;1153;47.986;7.898;2023-04-05T14:39:47;3.97;;;3.67;;
2289;SDS011;1153;47.986;7.898;2023-04-05T14:42:13;6.27;;;5.13;;
2289;SDS011;1153;47.986;7.898;2023-04-05T14:44:38;4.70;;;4.20;;
2289;SDS011;1153;47.986;7.898;2023-04-05T14:47:03;4.53;;;4.13;;
2289;SDS011;1153;47.986;7.898;2023-04-05T14:49:28;3.63;;;3.30;;
2289;SDS011;1153;47.986;7.898;2023-04-05T14:51:53;4.03;;;3.83;;
2289;SDS011;1153;47.986;7.898;2023-04-05T14:54:19;5.67;;;4.00;;
2289;SDS011;1153;47.986;7.898;2023-04-05T14:56:44;4.30;;;4.10;;
2289;SDS011;1153;47.986;7.898;2023-04-05T14:59:09;4.07;;;3.87;;
2289;SDS011;1153;47.986;7.898;2023-04-05T15:01:35;5.23;;;3.70;;
2289;SDS011;1153;47.986;7.898;2023-04-05T15:04:01;4.37;;;4.10;;
2289;SDS011;1153;47.986;7.898;2023-04-05T15:06:26;4.13;;;3.93;;
2289;SDS011;1153;47.986;7.898;2023-04-05T15:08:52;4.50;;;4.10;;
2289;SDS011;1153;47.986;7.898;2023-04-05T15:11:17;4.67;;;4.43;;
2289;SDS011;1153;47.986;7.898;2023-04-05T15:13:43;3.70;;;3.43;;
2289;SDS011;1153;47.986;7.898;2023-04-05T15:16:08;4.47;;;4.17;;
2289;SDS011;1153;47.986;7.898;2023-04-05T15:18:35;3.33;;;3.20;;
2289;SDS011;1153;47.986;7.898;2023-04-05T15:21:00;5.80;;;3.37;;
2289;SDS011;1153;47.986;7.898;2023-04-05T15:23:26;3.90;;;3.70;;
2289;SDS011;1153;47.986;7.898;2023-04-05T15:25:52;5.53;;;3.80;;
2289;SDS011;1153;47.986;7.898;2023-04-05T15:28:17;4.13;;;3.93;;
2289;SDS011;1153;47.986;7.898;2023-04-05T15:30:42;4.33;;;4.03;;
2289;SDS011;1153;47.986;7.898;2023-04-05T15:33:08;3.77;;;3.47;;
2289;SDS011;1153;47.986;7.898;2023-04-05T15:35:37;4.00;;;3.80;;
2289;SDS011;1153;47.986;7.898;2023-04-05T15:38:02;7.60;;;3.70;;
2289;SDS011;1153;47.986;7.898;2023-04-05T15:40:27;3.93;;;3.73;;
2289;SDS011;1153;47.986;7.898;2023-04-05T15:42:53;3.90;;;3.70;;
2289;SDS011;1153;47.986;7.898;2023-04-05T15:45:18;3.97;;;3.77;;
2289;SDS011;1153;47.986;7.898;2023-04-05T15:47:44;5.03;;;4.30;;
2289;SDS011;1153;47.986;7.898;2023-04-05T15:50:09;3.30;;;3.10;;
2289;SDS011;1153;47.986;7.898;2023-04-05T15:52:34;3.90;;;3.70;;
2289;SDS011;1153;47.986;7.898;2023-04-05T15:55:00;4.07;;;3.80;;